sensor_id;sensor_type;location;lat;lon;timestamp;P1;durP1;ratioP1;P2;durP2;ratioP2
85095;SDS011;75436;53.502;10.030;2024-03-29T00:02:00;2.05;;;1.10;;
85095;SDS011;75436;53.502;10.030;2024-03-29T00:04:26;1.75;;;1.10;;
85095;SDS011;75436;53.502;10.030;2024-03-29T00:06:51;1.80;;;0.80;;
85095;SDS011;75436;53.502;10.030;2024-03-29T00:09:17;3.15;;;1.17;;
85095;SDS011;75436;53.502;10.030;2024-03-29T00:11:42;4.32;;;1.08;;
85095;SDS011;75436;53.502;10.030;2024-03-29T00:14:08;2.83;;;1.00;;
85095;SDS011;75436;53.502;10.030;2024-03-29T00:16:34;5.13;;;1.15;;
85095;SDS011;75436;53.502;10.030;2024-03-29T00:18:59;3.55;;;1.10;;
85095;SDS011;75436;53.502;10.030;2024-03-29T00:21:25;2.90;;;1.40;;
85095;SDS011;75436;53.502;10.030;2024-03-29T00:23:50;2.55;;;0.90;;
85095;SDS011;75436;53.502;10.030;2024-03-29T00:26:16;3.13;;;0.98;;
85095;SDS011;75436;53.502;10.030;2024-03-29T00:28:41;3.08;;;1.15;;
85095;SDS011;75436;53.502;10.030;2024-03-29T00:31:07;4.93;;;1.40;;
85095;SDS011;75436;53.502;10.030;2024-03-29T00:33:33;3.85;;;1.15;;
85095;SDS011;75436;53.502;10.030;2024-03-29T00:35:58;4.10;;;1.00;;
85095;SDS011;75436;53.502;10.030;2024-03-29T00:38:24;3.08;;;1.10;;
85095;SDS011;75436;53.502;10.030;2024-03-29T00:40:50;2.25;;;1.20;;
85095;SDS011;75436;53.502;10.030;2024-03-29T00:43:15;4.25;;;1.30;;
85095;SDS011;75436;53.502;10.030;2024-03-29T00:45:41;2.38;;;1.10;;
85095;SDS011;75436;53.502;10.030;2024-03-29T00:48:06;3.05;;;1.05;;
85095;SDS011;75436;53.502;10.030;2024-03-29T00:50:32;4.32;;;1.08;;
85095;SDS011;75436;53.502;10.030;2024-03-29T00:52:57;3.55;;;1.20;;
85095;SDS011;75436;53.502;10.030;2024-03-29T00:55:23;2.97;;;1.00;;
85095;SDS011;75436;53.502;10.030;2024-03-29T00:57:48;2.67;;;0.60;;
85095;SDS011;75436;53.502;10.030;2024-03-29T01:00:14;3.25;;;0.82;;
85095;SDS011;75436;53.502;10.030;2024-03-29T01:02:39;2.42;;;0.85;;
85095;SDS011;75436;53.502;10.030;2024-03-29T01:05:05;3.65;;;1.10;;
85095;SDS011;75436;53.502;10.030;2024-03-29T01:07:32;3.22;;;1.10;;
85095;SDS011;75436;53.502;10.030;2024-03-29T01:09:57;1.80;;;1.02;;
85095;SDS011;75436;53.502;10.030;2024-03-29T01:12:23;3.17;;;1.10;;
85095;SDS011;75436;53.502;10.030;2024-03-29T01:14:48;3.40;;;0.95;;
85095;SDS011;75436;53.502;10.030;2024-03-29T01:17:13;2.45;;;0.88;;
85095;SDS011;75436;53.502;10.030;2024-03-29T01:19:39;2.20;;;1.13;;
85095;SDS011;75436;53.502;10.030;2024-03-29T01:22:04;2.70;;;0.82;;
85095;SDS011;75436;53.502;10.030;2024-03-29T01:24:30;3.15;;;1.10;;
85095;SDS011;75436;53.502;10.030;2024-03-29T01:26:55;3.00;;;1.02;;
85095;SDS011;75436;53.502;10.030;2024-03-29T01:29:21;2.92;;;1.20;;
85095;SDS011;75436;53.502;10.030;2024-03-29T01:31:46;2.50;;;0.98;;
85095;SDS011;75436;53.502;10.030;2024-03-29T01:34:11;2.85;;;0.85;;
85095;SDS011;75436;53.502;10.030;2024-03-29T01:36:37;3.00;;;1.40;;
85095;SDS011;75436;53.502;10.030;2024-03-29T01:39:03;2.85;;;0.90;;
85095;SDS011;75436;53.502;10.030;2024-03-29T01:41:29;3.33;;;1.02;;
85095;SDS011;75436;53.502;10.030;2024-03-29T01:43:54;1.23;;;0.73;;
85095;SDS011;75436;53.502;10.030;2024-03-29T01:46:21;4.45;;;1.20;;
85095;SDS011;75436;53.502;10.030;2024-03-29T01:48:52;3.58;;;1.00;;
85095;SDS011;75436;53.502;10.030;2024-03-29T01:51:19;2.92;;;1.10;;
85095;SDS011;75436;53.502;10.030;2024-03-29T01:53:50;2.10;;;1.02;;
85095;SDS011;75436;53.502;10.030;2024-03-29T01:56:22;1.92;;;0.90;;
85095;SDS011;75436;53.502;10.030;2024-03-29T01:58:49;2.65;;;0.90;;
85095;SDS011;75436;53.502;10.030;2024-03-29T02:01:18;3.08;;;0.95;;
85095;SDS011;75436;53.502;10.030;2024-03-29T02:03:45;2.85;;;1.10;;
85095;SDS011;75436;53.502;10.030;2024-03-29T02:06:12;2.85;;;0.98;;
85095;SDS011;75436;53.502;10.030;2024-03-29T02:08:38;1.80;;;0.90;;
85095;SDS011;75436;53.502;10.030;2024-03-29T02:11:04;2.90;;;1.00;;
85095;SDS011;75436;53.502;10.030;2024-03-29T02:13:31;2.40;;;0.90;;
85095;SDS011;75436;53.502;10.030;2024-03-29T02:15:57;3.33;;;1.10;;
85095;SDS011;75436;53.502;10.030;2024-03-29T02:18:22;6.07;;;1.10;;
85095;SDS011;75436;53.502;10.030;2024-03-29T02:20:47;3.63;;;1.00;;
85095;SDS011;75436;53.502;10.030;2024-03-29T02:23:18;3.35;;;1.17;;
85095;SDS011;75436;53.502;10.030;2024-03-29T02:25:47;4.70;;;1.00;;
85095;SDS011;75436;53.502;10.030;2024-03-29T02:28:13;2.97;;;1.00;;
85095;SDS011;75436;53.502;10.030;2024-03-29T02:30:38;2.53;;;0.70;;
85095;SDS011;75436;53.502;10.030;2024-03-29T02:33:04;3.47;;;1.20;;
85095;SDS011;75436;53.502;10.030;2024-03-29T02:35:29;3.33;;;0.88;;
85095;SDS011;75436;53.502;10.030;2024-03-29T02:37:55;2.72;;;1.20;;
85095;SDS011;75436;53.502;10.030;2024-03-29T02:40:21;1.52;;;0.80;;
85095;SDS011;75436;53.502;10.030;2024-03-29T02:42:50;3.80;;;1.00;;
85095;SDS011;75436;53.502;10.030;2024-03-29T02:45:16;1.67;;;0.82;;
85095;SDS011;75436;53.502;10.030;2024-03-29T02:47:42;2.42;;;0.95;;
85095;SDS011;75436;53.502;10.030;2024-03-29T02:50:09;5.00;;;0.77;;
85095;SDS011;75436;53.502;10.030;2024-03-29T02:52:35;1.80;;;0.70;;
85095;SDS011;75436;53.502;10.030;2024-03-29T02:55:01;2.92;;;0.80;;
85095;SDS011;75436;53.502;10.030;2024-03-29T02:57:27;2.00;;;0.95;;
85095;SDS011;75436;53.502;10.030;2024-03-29T02:59:53;4.68;;;0.90;;
85095;SDS011;75436;53.502;10.030;2024-03-29T03:02:18;2.13;;;0.98;;
85095;SDS011;75436;53.502;10.030;2024-03-29T03:04:44;3.22;;;1.20;;
85095;SDS011;75436;53.502;10.030;2024-03-29T03:07:10;5.30;;;1.20;;
85095;SDS011;75436;53.502;10.030;2024-03-29T03:09:54;2.63;;;0.98;;
85095;SDS011;75436;53.502;10.030;2024-03-29T03:12:38;4.35;;;0.93;;
85095;SDS011;75436;53.502;10.030;2024-03-29T03:15:04;2.47;;;0.70;;
85095;SDS011;75436;53.502;10.030;2024-03-29T03:17:30;1.42;;;0.80;;
85095;SDS011;75436;53.502;10.030;2024-03-29T03:19:56;2.38;;;0.90;;
85095;SDS011;75436;53.502;10.030;2024-03-29T03:22:22;4.63;;;0.82;;
85095;SDS011;75436;53.502;10.030;2024-03-29T03:24:47;2.65;;;0.95;;
85095;SDS011;75436;53.502;10.030;2024-03-29T03:27:13;3.42;;;0.80;;
85095;SDS011;75436;53.502;10.030;2024-03-29T03:29:38;1.70;;;0.70;;
85095;SDS011;75436;53.502;10.030;2024-03-29T03:32:05;2.78;;;0.98;;
85095;SDS011;75436;53.502;10.030;2024-03-29T03:34:31;2.63;;;0.73;;
85095;SDS011;75436;53.502;10.030;2024-03-29T03:36:58;1.50;;;0.70;;
85095;SDS011;75436;53.502;10.030;2024-03-29T03:39:23;3.88;;;0.80;;
85095;SDS011;75436;53.502;10.030;2024-03-29T03:41:50;2.45;;;0.93;;
85095;SDS011;75436;53.502;10.030;2024-03-29T03:44:16;2.83;;;0.90;;
85095;SDS011;75436;53.502;10.030;2024-03-29T03:46:42;3.97;;;1.05;;
85095;SDS011;75436;53.502;10.030;2024-03-29T03:49:07;2.47;;;0.90;;
85095;SDS011;75436;53.502;10.030;2024-03-29T03:51:33;2.47;;;0.70;;
85095;SDS011;75436;53.502;10.030;2024-03-29T03:53:58;7.05;;;1.13;;
85095;SDS011;75436;53.502;10.030;2024-03-29T03:56:23;1.85;;;0.65;;
85095;SDS011;75436;53.502;10.030;2024-03-29T03:58:49;2.95;;;0.90;;
85095;SDS011;75436;53.502;10.030;2024-03-29T04:01:14;2.17;;;0.82;;
85095;SDS011;75436;53.502;10.030;2024-03-29T04:03:40;2.60;;;0.70;;
85095;SDS011;75436;53.502;10.030;2024-03-29T04:06:06;1.67;;;0.70;;
85095;SDS011;75436;53.502;10.030;2024-03-29T04:08:32;2.15;;;0.70;;
85095;SDS011;75436;53.502;10.030;2024-03-29T04:10:57;2.22;;;0.85;;
85095;SDS011;75436;53.502;10.030;2024-03-29T04:13:30;2.75;;;0.73;;
85095;SDS011;75436;53.502;10.030;2024-03-29T04:16:01;2.80;;;0.70;;
85095;SDS011;75436;53.502;10.030;2024-03-29T04:18:28;2.60;;;0.83;;
85095;SDS011;75436;53.502;10.030;2024-03-29T04:20:57;3.50;;;0.70;;
85095;SDS011;75436;53.502;10.030;2024-03-29T04:23:23;4.93;;;0.60;;
85095;SDS011;75436;53.502;10.030;2024-03-29T04:26:07;4.30;;;0.93;;
85095;SDS011;75436;53.502;10.030;2024-03-29T04:28:32;1.70;;;0.60;;
85095;SDS011;75436;53.502;10.030;2024-03-29T04:30:58;3.67;;;0.82;;
85095;SDS011;75436;53.502;10.030;2024-03-29T04:33:26;3.72;;;0.90;;
85095;SDS011;75436;53.502;10.030;2024-03-29T04:35:59;3.13;;;0.75;;
85095;SDS011;75436;53.502;10.030;2024-03-29T04:38:28;2.50;;;0.80;;
85095;SDS011;75436;53.502;10.030;2024-03-29T04:40:55;4.57;;;0.70;;
85095;SDS011;75436;53.502;10.030;2024-03-29T04:43:22;3.35;;;0.90;;
85095;SDS011;75436;53.502;10.030;2024-03-29T04:48:49;1.85;;;0.73;;
85095;SDS011;75436;53.502;10.030;2024-03-29T04:51:15;6.93;;;0.90;;
85095;SDS011;75436;53.502;10.030;2024-03-29T04:53:40;3.40;;;0.80;;
85095;SDS011;75436;53.502;10.030;2024-03-29T04:56:06;2.83;;;0.80;;
85095;SDS011;75436;53.502;10.030;2024-03-29T04:58:32;1.65;;;0.60;;
85095;SDS011;75436;53.502;10.030;2024-03-29T05:00:57;5.30;;;1.20;;
85095;SDS011;75436;53.502;10.030;2024-03-29T05:03:23;1.88;;;0.95;;
85095;SDS011;75436;53.502;10.030;2024-03-29T05:05:49;2.42;;;1.02;;
85095;SDS011;75436;53.502;10.030;2024-03-29T05:08:16;3.17;;;0.90;;
85095;SDS011;75436;53.502;10.030;2024-03-29T05:10:44;4.38;;;0.80;;
85095;SDS011;75436;53.502;10.030;2024-03-29T05:13:11;2.63;;;0.80;;
85095;SDS011;75436;53.502;10.030;2024-03-29T05:15:37;2.72;;;0.70;;
85095;SDS011;75436;53.502;10.030;2024-03-29T05:18:03;3.08;;;1.10;;
85095;SDS011;75436;53.502;10.030;2024-03-29T05:20:28;3.42;;;0.90;;
85095;SDS011;75436;53.502;10.030;2024-03-29T05:22:55;2.92;;;0.70;;
85095;SDS011;75436;53.502;10.030;2024-03-29T05:25:20;4.38;;;0.68;;
85095;SDS011;75436;53.502;10.030;2024-03-29T05:27:46;3.95;;;0.85;;
85095;SDS011;75436;53.502;10.030;2024-03-29T05:30:11;2.70;;;1.25;;
85095;SDS011;75436;53.502;10.030;2024-03-29T05:32:38;2.00;;;0.90;;
85095;SDS011;75436;53.502;10.030;2024-03-29T05:35:03;3.00;;;0.90;;
85095;SDS011;75436;53.502;10.030;2024-03-29T05:37:29;2.63;;;0.82;;
85095;SDS011;75436;53.502;10.030;2024-03-29T05:39:54;3.38;;;0.82;;
85095;SDS011;75436;53.502;10.030;2024-03-29T05:42:29;3.72;;;0.80;;
85095;SDS011;75436;53.502;10.030;2024-03-29T05:44:56;1.80;;;0.70;;
85095;SDS011;75436;53.502;10.030;2024-03-29T05:47:22;4.53;;;0.82;;
85095;SDS011;75436;53.502;10.030;2024-03-29T05:49:48;3.72;;;0.80;;
85095;SDS011;75436;53.502;10.030;2024-03-29T05:52:14;3.40;;;0.88;;
85095;SDS011;75436;53.502;10.030;2024-03-29T05:54:41;2.13;;;0.63;;
85095;SDS011;75436;53.502;10.030;2024-03-29T05:57:08;3.15;;;0.90;;
85095;SDS011;75436;53.502;10.030;2024-03-29T05:59:33;2.35;;;1.00;;
85095;SDS011;75436;53.502;10.030;2024-03-29T06:02:00;2.63;;;0.57;;
85095;SDS011;75436;53.502;10.030;2024-03-29T06:04:25;2.67;;;0.80;;
85095;SDS011;75436;53.502;10.030;2024-03-29T06:07:00;3.83;;;1.10;;
85095;SDS011;75436;53.502;10.030;2024-03-29T06:09:29;1.02;;;0.52;;
85095;SDS011;75436;53.502;10.030;2024-03-29T06:11:56;4.28;;;0.90;;
85095;SDS011;75436;53.502;10.030;2024-03-29T06:14:22;5.53;;;1.00;;
85095;SDS011;75436;53.502;10.030;2024-03-29T06:17:07;3.58;;;0.80;;
85095;SDS011;75436;53.502;10.030;2024-03-29T06:19:49;3.28;;;0.70;;
85095;SDS011;75436;53.502;10.030;2024-03-29T06:22:21;2.75;;;0.65;;
85095;SDS011;75436;53.502;10.030;2024-03-29T06:24:48;1.63;;;0.55;;
85095;SDS011;75436;53.502;10.030;2024-03-29T06:27:15;1.27;;;0.60;;
85095;SDS011;75436;53.502;10.030;2024-03-29T06:29:42;4.35;;;0.68;;
85095;SDS011;75436;53.502;10.030;2024-03-29T06:32:09;3.00;;;0.80;;
85095;SDS011;75436;53.502;10.030;2024-03-29T06:34:34;3.20;;;0.90;;
85095;SDS011;75436;53.502;10.030;2024-03-29T06:36:59;1.67;;;0.43;;
85095;SDS011;75436;53.502;10.030;2024-03-29T06:39:25;1.33;;;0.60;;
85095;SDS011;75436;53.502;10.030;2024-03-29T06:41:51;2.28;;;0.90;;
85095;SDS011;75436;53.502;10.030;2024-03-29T06:44:17;1.80;;;0.73;;
85095;SDS011;75436;53.502;10.030;2024-03-29T06:46:43;1.55;;;0.60;;
85095;SDS011;75436;53.502;10.030;2024-03-29T06:49:08;2.80;;;0.73;;
85095;SDS011;75436;53.502;10.030;2024-03-29T06:51:34;2.88;;;0.60;;
85095;SDS011;75436;53.502;10.030;2024-03-29T06:53:59;3.33;;;0.73;;
85095;SDS011;75436;53.502;10.030;2024-03-29T06:56:24;4.10;;;0.90;;
85095;SDS011;75436;53.502;10.030;2024-03-29T06:58:50;2.85;;;0.73;;
85095;SDS011;75436;53.502;10.030;2024-03-29T07:01:15;1.73;;;0.70;;
85095;SDS011;75436;53.502;10.030;2024-03-29T07:03:41;1.83;;;0.70;;
85095;SDS011;75436;53.502;10.030;2024-03-29T07:06:06;1.30;;;0.60;;
85095;SDS011;75436;53.502;10.030;2024-03-29T07:08:32;2.20;;;0.70;;
85095;SDS011;75436;53.502;10.030;2024-03-29T07:11:00;2.30;;;0.60;;
85095;SDS011;75436;53.502;10.030;2024-03-29T07:13:28;1.85;;;0.65;;
85095;SDS011;75436;53.502;10.030;2024-03-29T07:15:58;3.08;;;0.80;;
85095;SDS011;75436;53.502;10.030;2024-03-29T07:18:24;1.48;;;0.50;;
85095;SDS011;75436;53.502;10.030;2024-03-29T07:20:50;2.20;;;0.60;;
85095;SDS011;75436;53.502;10.030;2024-03-29T07:23:16;2.30;;;0.68;;
85095;SDS011;75436;53.502;10.030;2024-03-29T07:25:56;2.92;;;0.70;;
85095;SDS011;75436;53.502;10.030;2024-03-29T07:28:27;1.30;;;0.52;;
85095;SDS011;75436;53.502;10.030;2024-03-29T07:30:53;2.28;;;0.65;;
85095;SDS011;75436;53.502;10.030;2024-03-29T07:33:19;1.05;;;0.50;;
85095;SDS011;75436;53.502;10.030;2024-03-29T07:35:51;1.90;;;0.50;;
85095;SDS011;75436;53.502;10.030;2024-03-29T07:38:18;4.18;;;0.80;;
85095;SDS011;75436;53.502;10.030;2024-03-29T07:40:45;1.98;;;0.52;;
85095;SDS011;75436;53.502;10.030;2024-03-29T07:43:18;1.92;;;0.60;;
85095;SDS011;75436;53.502;10.030;2024-03-29T07:45:44;3.67;;;0.90;;
85095;SDS011;75436;53.502;10.030;2024-03-29T07:48:14;1.90;;;0.60;;
85095;SDS011;75436;53.502;10.030;2024-03-29T07:50:42;2.22;;;0.82;;
85095;SDS011;75436;53.502;10.030;2024-03-29T07:53:10;1.70;;;0.50;;
85095;SDS011;75436;53.502;10.030;2024-03-29T07:55:39;0.90;;;0.40;;
85095;SDS011;75436;53.502;10.030;2024-03-29T07:58:08;3.08;;;0.60;;
85095;SDS011;75436;53.502;10.030;2024-03-29T08:00:35;4.65;;;0.73;;
85095;SDS011;75436;53.502;10.030;2024-03-29T08:03:05;3.13;;;0.77;;
85095;SDS011;75436;53.502;10.030;2024-03-29T08:05:31;0.90;;;0.60;;
85095;SDS011;75436;53.502;10.030;2024-03-29T08:07:56;1.88;;;0.80;;
85095;SDS011;75436;53.502;10.030;2024-03-29T08:10:21;2.60;;;0.50;;
85095;SDS011;75436;53.502;10.030;2024-03-29T08:12:47;1.67;;;0.57;;
85095;SDS011;75436;53.502;10.030;2024-03-29T08:15:13;2.95;;;1.00;;
85095;SDS011;75436;53.502;10.030;2024-03-29T08:17:39;1.00;;;0.40;;
85095;SDS011;75436;53.502;10.030;2024-03-29T08:20:04;1.75;;;0.50;;
85095;SDS011;75436;53.502;10.030;2024-03-29T08:22:30;1.27;;;0.40;;
85095;SDS011;75436;53.502;10.030;2024-03-29T08:24:58;2.20;;;0.43;;
85095;SDS011;75436;53.502;10.030;2024-03-29T08:27:25;5.22;;;0.70;;
85095;SDS011;75436;53.502;10.030;2024-03-29T08:29:51;3.65;;;0.43;;
85095;SDS011;75436;53.502;10.030;2024-03-29T08:32:16;3.78;;;0.55;;
85095;SDS011;75436;53.502;10.030;2024-03-29T08:34:42;1.95;;;0.45;;
85095;SDS011;75436;53.502;10.030;2024-03-29T08:37:07;1.13;;;0.40;;
85095;SDS011;75436;53.502;10.030;2024-03-29T08:39:33;1.33;;;0.47;;
85095;SDS011;75436;53.502;10.030;2024-03-29T08:41:59;2.55;;;0.40;;
85095;SDS011;75436;53.502;10.030;2024-03-29T08:44:30;1.80;;;0.40;;
85095;SDS011;75436;53.502;10.030;2024-03-29T08:46:56;2.80;;;0.60;;
85095;SDS011;75436;53.502;10.030;2024-03-29T08:49:23;2.13;;;0.47;;
85095;SDS011;75436;53.502;10.030;2024-03-29T08:51:49;1.92;;;0.57;;
85095;SDS011;75436;53.502;10.030;2024-03-29T08:54:15;3.03;;;0.65;;
85095;SDS011;75436;53.502;10.030;2024-03-29T08:56:41;4.45;;;0.50;;
85095;SDS011;75436;53.502;10.030;2024-03-29T08:59:07;2.22;;;0.50;;
85095;SDS011;75436;53.502;10.030;2024-03-29T09:01:37;1.45;;;0.60;;
85095;SDS011;75436;53.502;10.030;2024-03-29T09:04:10;1.65;;;0.57;;
85095;SDS011;75436;53.502;10.030;2024-03-29T09:06:40;1.38;;;0.52;;
85095;SDS011;75436;53.502;10.030;2024-03-29T09:09:05;1.30;;;0.50;;
85095;SDS011;75436;53.502;10.030;2024-03-29T09:11:33;1.27;;;0.45;;
85095;SDS011;75436;53.502;10.030;2024-03-29T09:13:59;1.35;;;0.40;;
85095;SDS011;75436;53.502;10.030;2024-03-29T09:16:26;2.38;;;0.60;;
85095;SDS011;75436;53.502;10.030;2024-03-29T09:18:55;1.08;;;0.47;;
85095;SDS011;75436;53.502;10.030;2024-03-29T09:21:20;3.25;;;0.60;;
85095;SDS011;75436;53.502;10.030;2024-03-29T09:23:46;3.15;;;0.80;;
85095;SDS011;75436;53.502;10.030;2024-03-29T09:26:13;3.42;;;0.50;;
85095;SDS011;75436;53.502;10.030;2024-03-29T09:28:40;2.00;;;0.55;;
85095;SDS011;75436;53.502;10.030;2024-03-29T09:31:05;3.05;;;0.73;;
85095;SDS011;75436;53.502;10.030;2024-03-29T09:33:31;3.08;;;0.47;;
85095;SDS011;75436;53.502;10.030;2024-03-29T09:35:56;1.38;;;0.40;;
85095;SDS011;75436;53.502;10.030;2024-03-29T09:38:24;1.50;;;0.50;;
85095;SDS011;75436;53.502;10.030;2024-03-29T09:40:52;5.60;;;0.70;;
85095;SDS011;75436;53.502;10.030;2024-03-29T09:43:40;2.40;;;0.65;;
85095;SDS011;75436;53.502;10.030;2024-03-29T09:46:09;2.35;;;0.55;;
85095;SDS011;75436;53.502;10.030;2024-03-29T09:48:37;2.88;;;0.73;;
85095;SDS011;75436;53.502;10.030;2024-03-29T09:51:03;1.35;;;0.50;;
85095;SDS011;75436;53.502;10.030;2024-03-29T09:53:31;2.67;;;0.43;;
85095;SDS011;75436;53.502;10.030;2024-03-29T09:56:01;1.75;;;0.50;;
85095;SDS011;75436;53.502;10.030;2024-03-29T09:58:33;3.20;;;0.50;;
85095;SDS011;75436;53.502;10.030;2024-03-29T10:01:00;3.13;;;0.70;;
85095;SDS011;75436;53.502;10.030;2024-03-29T10:03:29;2.42;;;0.60;;
85095;SDS011;75436;53.502;10.030;2024-03-29T10:06:00;1.27;;;0.47;;
85095;SDS011;75436;53.502;10.030;2024-03-29T10:08:27;2.17;;;0.60;;
85095;SDS011;75436;53.502;10.030;2024-03-29T10:10:59;2.10;;;0.60;;
85095;SDS011;75436;53.502;10.030;2024-03-29T10:13:25;1.58;;;0.60;;
85095;SDS011;75436;53.502;10.030;2024-03-29T10:15:51;2.05;;;0.55;;
85095;SDS011;75436;53.502;10.030;2024-03-29T10:18:20;2.47;;;0.85;;
85095;SDS011;75436;53.502;10.030;2024-03-29T10:23:31;3.38;;;0.70;;
85095;SDS011;75436;53.502;10.030;2024-03-29T10:25:57;2.03;;;0.57;;
85095;SDS011;75436;53.502;10.030;2024-03-29T10:28:23;1.27;;;0.52;;
85095;SDS011;75436;53.502;10.030;2024-03-29T10:30:52;1.05;;;0.50;;
85095;SDS011;75436;53.502;10.030;2024-03-29T10:33:20;1.33;;;0.55;;
85095;SDS011;75436;53.502;10.030;2024-03-29T10:35:46;2.03;;;0.82;;
85095;SDS011;75436;53.502;10.030;2024-03-29T10:38:12;3.45;;;0.55;;
85095;SDS011;75436;53.502;10.030;2024-03-29T10:40:38;1.80;;;0.50;;
85095;SDS011;75436;53.502;10.030;2024-03-29T10:43:06;1.40;;;0.73;;
85095;SDS011;75436;53.502;10.030;2024-03-29T10:45:41;2.28;;;0.70;;
85095;SDS011;75436;53.502;10.030;2024-03-29T10:48:11;1.27;;;0.63;;
85095;SDS011;75436;53.502;10.030;2024-03-29T10:50:36;2.67;;;0.73;;
85095;SDS011;75436;53.502;10.030;2024-03-29T10:53:04;3.25;;;0.82;;
85095;SDS011;75436;53.502;10.030;2024-03-29T10:55:30;3.72;;;0.65;;
85095;SDS011;75436;53.502;10.030;2024-03-29T10:58:00;1.73;;;0.73;;
85095;SDS011;75436;53.502;10.030;2024-03-29T11:00:33;2.25;;;0.63;;
85095;SDS011;75436;53.502;10.030;2024-03-29T11:06:04;1.30;;;0.60;;
85095;SDS011;75436;53.502;10.030;2024-03-29T11:08:31;1.95;;;0.82;;
85095;SDS011;75436;53.502;10.030;2024-03-29T11:11:04;8.15;;;0.95;;
85095;SDS011;75436;53.502;10.030;2024-03-29T11:13:49;2.42;;;0.80;;
85095;SDS011;75436;53.502;10.030;2024-03-29T11:16:31;2.83;;;0.82;;
85095;SDS011;75436;53.502;10.030;2024-03-29T11:18:57;3.65;;;0.90;;
85095;SDS011;75436;53.502;10.030;2024-03-29T11:21:24;2.58;;;0.70;;
85095;SDS011;75436;53.502;10.030;2024-03-29T11:23:53;1.60;;;0.60;;
85095;SDS011;75436;53.502;10.030;2024-03-29T11:26:20;1.70;;;0.68;;
85095;SDS011;75436;53.502;10.030;2024-03-29T11:28:49;2.78;;;1.10;;
85095;SDS011;75436;53.502;10.030;2024-03-29T11:31:16;2.58;;;0.90;;
85095;SDS011;75436;53.502;10.030;2024-03-29T11:36:12;4.05;;;1.70;;
85095;SDS011;75436;53.502;10.030;2024-03-29T11:38:41;4.47;;;1.95;;
85095;SDS011;75436;53.502;10.030;2024-03-29T11:41:11;4.95;;;2.42;;
85095;SDS011;75436;53.502;10.030;2024-03-29T11:43:40;4.57;;;2.25;;
85095;SDS011;75436;53.502;10.030;2024-03-29T11:46:08;3.10;;;0.90;;
85095;SDS011;75436;53.502;10.030;2024-03-29T11:48:36;4.63;;;0.90;;
85095;SDS011;75436;53.502;10.030;2024-03-29T11:51:04;3.20;;;0.80;;
85095;SDS011;75436;53.502;10.030;2024-03-29T11:53:32;2.65;;;1.10;;
85095;SDS011;75436;53.502;10.030;2024-03-29T11:55:58;1.95;;;0.70;;
85095;SDS011;75436;53.502;10.030;2024-03-29T11:58:26;1.65;;;0.65;;
85095;SDS011;75436;53.502;10.030;2024-03-29T12:00:53;1.67;;;0.80;;
85095;SDS011;75436;53.502;10.030;2024-03-29T12:03:20;2.03;;;0.80;;
85095;SDS011;75436;53.502;10.030;2024-03-29T12:05:47;3.08;;;0.98;;
85095;SDS011;75436;53.502;10.030;2024-03-29T12:08:19;2.30;;;1.00;;
85095;SDS011;75436;53.502;10.030;2024-03-29T12:10:46;3.88;;;1.33;;
85095;SDS011;75436;53.502;10.030;2024-03-29T12:13:11;2.70;;;0.90;;
85095;SDS011;75436;53.502;10.030;2024-03-29T12:15:37;3.90;;;1.20;;
85095;SDS011;75436;53.502;10.030;2024-03-29T12:18:05;3.35;;;1.38;;
85095;SDS011;75436;53.502;10.030;2024-03-29T12:20:34;2.67;;;0.90;;
85095;SDS011;75436;53.502;10.030;2024-03-29T12:23:08;4.38;;;1.05;;
85095;SDS011;75436;53.502;10.030;2024-03-29T12:25:35;2.17;;;0.90;;
85095;SDS011;75436;53.502;10.030;2024-03-29T12:28:02;3.15;;;0.90;;
85095;SDS011;75436;53.502;10.030;2024-03-29T12:30:29;2.67;;;0.90;;
85095;SDS011;75436;53.502;10.030;2024-03-29T12:33:08;1.50;;;0.70;;
85095;SDS011;75436;53.502;10.030;2024-03-29T12:35:40;2.75;;;0.75;;
85095;SDS011;75436;53.502;10.030;2024-03-29T12:38:13;2.47;;;0.90;;
85095;SDS011;75436;53.502;10.030;2024-03-29T12:40:41;2.22;;;1.02;;
85095;SDS011;75436;53.502;10.030;2024-03-29T12:43:09;3.30;;;0.85;;
85095;SDS011;75436;53.502;10.030;2024-03-29T12:45:36;1.77;;;0.90;;
85095;SDS011;75436;53.502;10.030;2024-03-29T12:48:11;2.85;;;1.00;;
85095;SDS011;75436;53.502;10.030;2024-03-29T12:50:39;2.10;;;1.03;;
85095;SDS011;75436;53.502;10.030;2024-03-29T12:53:06;1.60;;;0.90;;
85095;SDS011;75436;53.502;10.030;2024-03-29T12:55:33;2.08;;;0.98;;
85095;SDS011;75436;53.502;10.030;2024-03-29T12:58:01;2.28;;;1.10;;
85095;SDS011;75436;53.502;10.030;2024-03-29T13:00:29;3.17;;;1.40;;
85095;SDS011;75436;53.502;10.030;2024-03-29T13:02:55;3.28;;;1.17;;
85095;SDS011;75436;53.502;10.030;2024-03-29T13:05:21;3.63;;;1.30;;
85095;SDS011;75436;53.502;10.030;2024-03-29T13:07:47;2.25;;;1.00;;
85095;SDS011;75436;53.502;10.030;2024-03-29T13:10:12;2.30;;;0.90;;
85095;SDS011;75436;53.502;10.030;2024-03-29T13:12:42;2.05;;;0.80;;
85095;SDS011;75436;53.502;10.030;2024-03-29T13:15:20;4.10;;;1.00;;
85095;SDS011;75436;53.502;10.030;2024-03-29T13:17:51;5.40;;;1.10;;
85095;SDS011;75436;53.502;10.030;2024-03-29T13:20:19;1.60;;;0.80;;
85095;SDS011;75436;53.502;10.030;2024-03-29T13:22:46;1.88;;;0.80;;
85095;SDS011;75436;53.502;10.030;2024-03-29T13:25:15;3.60;;;1.00;;
85095;SDS011;75436;53.502;10.030;2024-03-29T13:27:42;1.75;;;0.90;;
85095;SDS011;75436;53.502;10.030;2024-03-29T13:30:10;2.20;;;1.20;;
85095;SDS011;75436;53.502;10.030;2024-03-29T13:32:38;2.95;;;1.70;;
85095;SDS011;75436;53.502;10.030;2024-03-29T13:35:05;1.95;;;1.00;;
85095;SDS011;75436;53.502;10.030;2024-03-29T13:37:34;2.25;;;1.00;;
85095;SDS011;75436;53.502;10.030;2024-03-29T13:40:05;2.08;;;0.90;;
85095;SDS011;75436;53.502;10.030;2024-03-29T13:42:34;2.42;;;1.05;;
85095;SDS011;75436;53.502;10.030;2024-03-29T13:45:06;2.53;;;0.85;;
85095;SDS011;75436;53.502;10.030;2024-03-29T13:47:39;1.90;;;0.80;;
85095;SDS011;75436;53.502;10.030;2024-03-29T13:50:07;3.22;;;0.80;;
85095;SDS011;75436;53.502;10.030;2024-03-29T13:52:35;1.35;;;0.60;;
85095;SDS011;75436;53.502;10.030;2024-03-29T13:55:02;2.78;;;0.80;;
85095;SDS011;75436;53.502;10.030;2024-03-29T13:57:28;2.33;;;0.75;;
85095;SDS011;75436;53.502;10.030;2024-03-29T13:59:55;3.65;;;1.00;;
85095;SDS011;75436;53.502;10.030;2024-03-29T14:02:21;1.65;;;0.90;;
85095;SDS011;75436;53.502;10.030;2024-03-29T14:04:48;1.58;;;0.70;;
85095;SDS011;75436;53.502;10.030;2024-03-29T14:07:15;1.25;;;0.70;;
85095;SDS011;75436;53.502;10.030;2024-03-29T14:09:42;1.00;;;0.60;;
85095;SDS011;75436;53.502;10.030;2024-03-29T14:12:10;2.55;;;0.70;;
85095;SDS011;75436;53.502;10.030;2024-03-29T14:14:37;1.65;;;0.70;;
85095;SDS011;75436;53.502;10.030;2024-03-29T14:17:03;1.30;;;0.65;;
85095;SDS011;75436;53.502;10.030;2024-03-29T14:19:31;1.65;;;0.70;;
85095;SDS011;75436;53.502;10.030;2024-03-29T14:21:58;1.52;;;0.65;;
85095;SDS011;75436;53.502;10.030;2024-03-29T14:24:32;3.22;;;0.60;;
85095;SDS011;75436;53.502;10.030;2024-03-29T14:27:01;2.47;;;1.00;;
85095;SDS011;75436;53.502;10.030;2024-03-29T14:29:31;2.03;;;1.10;;
85095;SDS011;75436;53.502;10.030;2024-03-29T14:31:57;1.20;;;0.60;;
85095;SDS011;75436;53.502;10.030;2024-03-29T14:34:23;1.90;;;0.52;;
85095;SDS011;75436;53.502;10.030;2024-03-29T14:36:50;1.63;;;0.80;;
85095;SDS011;75436;53.502;10.030;2024-03-29T14:39:16;1.20;;;0.65;;
85095;SDS011;75436;53.502;10.030;2024-03-29T14:41:44;2.13;;;0.70;;
85095;SDS011;75436;53.502;10.030;2024-03-29T14:44:11;1.77;;;0.90;;
85095;SDS011;75436;53.502;10.030;2024-03-29T14:46:37;2.13;;;1.10;;